Time;durP1;ratioP1;P1;durP2;ratioP2;P2;SDS_P1;SDS_P2;PMS_P1;PMS_P2;Temp;Humidity;BMP_temperature;BMP_pressure;BME280_temperature;BME280_humidity;BME280_pressure;Samples;Min_cycle;Max_cycle;Signal;HPM_P1;HPM_P2
2023/09/09 00:01:29;;;;;;;;;;;;;;;18.65;100.00;96599.94;5104392;28;19967;-71
2023/09/09 00:03:56;;;;;;;;;;;;;;;18.62;100.00;96592.50;5104317;28;19954;-71
2023/09/09 00:06:22;;;;;;;;;;;;;;;18.60;100.00;96585.84;5104322;28;19966;-71
2023/09/09 00:08:48;;;;;;;;;;;;;;;18.57;100.00;96591.72;5103911;28;19950;-71
2023/09/09 00:11:14;;;;;;;;;;;;;;;18.54;100.00;96587.75;5103957;28;19981;-72
2023/09/09 00:13:39;;;;;;;;;;;;;;;18.52;100.00;96597.81;5104193;28;19973;-69
2023/09/09 00:16:06;;;;;;;;;;;;;;;18.51;100.00;96596.22;5104441;28;20267;-78
2023/09/09 00:18:32;;;;;;;;;;;;;;;18.48;100.00;96598.59;5104578;28;20109;-78
2023/09/09 00:20:57;;;;;;;;;;;;;;;18.45;100.00;96597.28;5104437;28;19963;-78
2023/09/09 00:23:23;;;;;;;;;;;;;;;18.43;100.00;96588.78;5103999;28;19953;-78
2023/09/09 00:25:49;;;;;;;;;;;;;;;18.41;100.00;96598.88;5104010;28;19959;-78
2023/09/09 00:28:15;;;;;;;;;;;;;;;18.38;100.00;96594.09;5104385;28;19956;-78
2023/09/09 00:30:42;;;;;;;;;;;;;;;18.34;100.00;96593.81;5104574;28;19953;-69
2023/09/09 00:33:08;;;;;;;;;;;;;;;18.33;100.00;96596.72;5103982;28;20233;-79
2023/09/09 00:35:36;;;;;;;;;;;;;;;18.31;100.00;96590.88;5104008;28;19961;-78
2023/09/09 00:38:02;;;;;;;;;;;;;;;18.28;100.00;96586.09;5104574;28;19953;-78
2023/09/09 00:40:28;;;;;;;;;;;;;;;18.25;100.00;96598.06;5107477;28;19968;-78
2023/09/09 00:42:54;;;;;;;;;;;;;;;18.23;100.00;96587.69;5107855;28;19960;-78
2023/09/09 00:45:20;;;;;;;;;;;;;;;18.21;100.00;96589.03;5107822;28;19982;-78
2023/09/09 00:47:46;;;;;;;;;;;;;;;18.18;100.00;96586.88;5107886;28;19963;-78
2023/09/09 00:50:13;;;;;;;;;;;;;;;18.16;100.00;96587.13;5107805;28;19963;-72
2023/09/09 00:52:40;;;;;;;;;;;;;;;18.14;100.00;96583.97;5107738;28;19968;-70
2023/09/09 00:55:06;;;;;;;;;;;;;;;18.12;100.00;96579.97;5107957;28;19956;-70
2023/09/09 00:57:33;;;;;;;;;;;;;;;18.11;100.00;96584.47;5107147;28;19951;-70
2023/09/09 01:00:00;;;;;;;;;;;;;;;18.08;100.00;96582.38;5107279;28;19965;-69
2023/09/09 01:02:26;;;;;;;;;;;;;;;18.06;100.00;96581.84;5107583;28;19960;-69
2023/09/09 01:04:52;;;;;;;;;;;;;;;18.05;100.00;96581.00;5107544;28;19962;-69
2023/09/09 01:07:18;;;;;;;;;;;;;;;18.02;100.00;96578.91;5089386;28;19958;-81
2023/09/09 01:09:44;;;;;;;;;;;;;;;18.00;100.00;96586.31;5107272;28;19956;-69
2023/09/09 01:12:11;;;;;;;;;;;;;;;17.98;100.00;96577.81;5089151;28;20186;-69
2023/09/09 01:14:40;;;;;;;;;;;;;;;17.95;100.00;96580.97;5107318;28;19961;-69
2023/09/09 01:17:07;;;;;;;;;;;;;;;17.94;100.00;96579.41;5107295;28;19950;-70
2023/09/09 01:19:34;;;;;;;;;;;;;;;17.93;100.00;96582.31;5107238;28;19952;-70
2023/09/09 01:22:03;;;;;;;;;;;;;;;17.91;100.00;96587.09;5106775;28;19961;-70
2023/09/09 01:24:29;;;;;;;;;;;;;;;17.90;100.00;96585.50;5107367;28;19960;-69
2023/09/09 01:26:55;;;;;;;;;;;;;;;17.90;100.00;96588.16;5106956;28;19965;-69
2023/09/09 01:29:22;;;;;;;;;;;;;;;17.86;100.00;96587.88;5106765;28;19957;-78
2023/09/09 01:31:47;;;;;;;;;;;;;;;17.83;100.00;96591.84;5107302;28;19958;-78
2023/09/09 01:34:13;;;;;;;;;;;;;;;17.80;100.00;96592.31;5106947;28;20311;-77
2023/09/09 01:36:39;;;;;;;;;;;;;;;17.80;100.00;96588.88;5088671;28;19952;-77
2023/09/09 01:39:05;;;;;;;;;;;;;;;17.79;100.00;96589.94;5088555;28;20012;-78
2023/09/09 01:41:31;;;;;;;;;;;;;;;17.77;100.00;96584.91;5106774;28;19961;-78
2023/09/09 01:43:57;;;;;;;;;;;;;;;17.75;100.00;96600.28;5088624;28;19953;-72
2023/09/09 01:46:23;;;;;;;;;;;;;;;17.75;100.00;96599.47;5106707;28;19960;-72
2023/09/09 01:48:49;;;;;;;;;;;;;;;17.73;100.00;96598.94;5106189;28;19944;-78
2023/09/09 01:51:14;;;;;;;;;;;;;;;17.71;100.00;96591.25;5105811;28;19960;-78
2023/09/09 01:53:40;;;;;;;;;;;;;;;17.70;100.00;96589.66;5106094;28;19964;-77
2023/09/09 01:56:06;;;;;;;;;;;;;;;17.69;100.00;96592.56;5106536;28;20292;-78
2023/09/09 01:58:32;;;;;;;;;;;;;;;17.67;100.00;96582.19;5088118;28;19963;-77
2023/09/09 02:00:58;;;;;;;;;;;;;;;17.65;100.00;96594.94;5106437;28;20020;-77
2023/09/09 02:03:25;;;;;;;;;;;;;;;17.63;100.00;96587.22;5106196;28;20269;-81
2023/09/09 02:05:51;;;;;;;;;;;;;;;17.61;100.00;96589.34;5106472;28;19955;-69
2023/09/09 02:08:17;;;;;;;;;;;;;;;17.60;100.00;96584.31;5106409;28;19963;-68
2023/09/09 02:10:43;;;;;;;;;;;;;;;17.58;100.00;96589.06;5106268;28;19985;-69
2023/09/09 02:13:09;;;;;;;;;;;;;;;17.56;100.00;96589.31;5106147;28;19975;-69
2023/09/09 02:15:34;;;;;;;;;;;;;;;17.55;100.00;96584.28;5088046;28;20109;-69
2023/09/09 02:18:00;;;;;;;;;;;;;;;17.54;100.00;96591.44;5105551;28;20025;-69
2023/09/09 02:20:26;;;;;;;;;;;;;;;17.53;100.00;96581.09;5106440;28;19939;-76
2023/09/09 02:22:52;;;;;;;;;;;;;;;17.52;100.00;96576.84;5106128;28;19961;-75
2023/09/09 02:25:18;;;;;;;;;;;;;;;17.50;100.00;96585.06;5105609;28;20027;-77
2023/09/09 02:27:44;;;;;;;;;;;;;;;17.50;100.00;96578.97;5106006;28;20236;-78
2023/09/09 02:30:10;;;;;;;;;;;;;;;17.50;100.00;96578.97;5087522;28;19961;-78
2023/09/09 02:32:37;;;;;;;;;;;;;;;17.50;100.00;96577.09;5105769;28;20012;-77
2023/09/09 02:35:03;;;;;;;;;;;;;;;17.49;100.00;96580.81;5105539;28;19964;-78
2023/09/09 02:37:29;;;;;;;;;;;;;;;17.48;100.00;96575.78;5105187;28;19960;-77
2023/09/09 02:39:55;;;;;;;;;;;;;;;17.45;100.00;96575.22;5105749;28;19960;-78
2023/09/09 02:42:22;;;;;;;;;;;;;;;17.42;100.00;96575.72;5105691;28;19961;-75
2023/09/09 02:44:52;;;;;;;;;;;;;;;17.41;100.00;96568.06;5105677;28;19954;-75
2023/09/09 02:47:18;;;;;;;;;;;;;;;17.39;100.00;96572.81;5105460;28;19970;-75
2023/09/09 02:49:44;;;;;;;;;;;;;;;17.38;100.00;96579.16;5105108;28;19969;-75
2023/09/09 02:52:10;;;;;;;;;;;;;;;17.36;100.00;96574.09;5105060;28;20252;-75
2023/09/09 02:54:37;;;;;;;;;;;;;;;17.35;100.00;96569.88;5104995;28;19965;-75
2023/09/09 02:57:06;;;;;;;;;;;;;;;17.34;100.00;96575.44;5105476;28;19954;-81
2023/09/09 02:59:33;;;;;;;;;;;;;;;17.31;100.00;96581.25;5105118;28;19964;-81
2023/09/09 03:02:01;;;;;;;;;;;;;;;17.29;100.00;96580.72;5104118;28;19955;-71
2023/09/09 03:04:27;;;;;;;;;;;;;;;17.27;100.00;96577.53;5105096;28;20153;-71
2023/09/09 03:06:53;;;;;;;;;;;;;;;17.25;100.00;96583.88;5104661;28;19955;-71
2023/09/09 03:09:20;;;;;;;;;;;;;;;17.21;100.00;96577.47;5105165;28;20185;-72
2023/09/09 03:11:46;;;;;;;;;;;;;;;17.21;100.00;96584.63;5105254;28;19952;-72
2023/09/09 03:14:12;;;;;;;;;;;;;;;17.17;100.00;96576.41;5105104;28;19974;-72
2023/09/09 03:16:38;;;;;;;;;;;;;;;17.18;100.00;96578.00;5104654;28;20007;-82
2023/09/09 03:19:04;;;;;;;;;;;;;;;17.17;100.00;96571.09;5087208;28;19961;-82
2023/09/09 03:21:30;;;;;;;;;;;;;;;17.17;100.00;96579.03;5105247;28;19951;-82
2023/09/09 03:23:56;;;;;;;;;;;;;;;17.15;100.00;96578.50;5105014;28;19952;-81
2023/09/09 03:26:22;;;;;;;;;;;;;;;17.16;100.00;96576.66;5070401;28;19955;-81
2023/09/09 03:28:48;;;;;;;;;;;;;;;17.16;100.00;96574.81;5086680;28;20318;-81
2023/09/09 03:31:14;;;;;;;;;;;;;;;17.17;100.00;96579.03;5104691;28;19953;-81
2023/09/09 03:33:40;;;;;;;;;;;;;;;17.16;100.00;96576.66;5104800;28;20136;-80
2023/09/09 03:36:06;;;;;;;;;;;;;;;17.14;100.00;96574.28;5104336;28;19956;-70
2023/09/09 03:38:32;;;;;;;;;;;;;;;17.13;100.00;96574.53;5104829;28;19956;-74
2023/09/09 03:40:58;;;;;;;;;;;;;;;17.12;100.00;96573.72;5104871;28;19943;-74
2023/09/09 03:43:24;;;;;;;;;;;;;;;17.11;100.00;96574.75;5104842;28;19974;-74
2023/09/09 03:45:57;;;;;;;;;;;;;;;17.10;100.00;96575.84;5104304;28;20143;-74
2023/09/09 03:48:23;;;;;;;;;;;;;;;17.10;100.00;96575.03;5104984;28;19969;-74
2023/09/09 03:50:49;;;;;;;;;;;;;;;17.09;100.00;96573.44;5104971;28;19962;-75
2023/09/09 03:53:15;;;;;;;;;;;;;;;17.09;100.00;96576.09;5104287;28;19968;-72
2023/09/09 03:55:41;;;;;;;;;;;;;;;17.08;100.00;96570.00;5104202;28;19966;-85
2023/09/09 03:58:07;;;;;;;;;;;;;;;17.08;100.00;96577.94;5104393;28;20154;-86
2023/09/09 04:00:33;;;;;;;;;;;;;;;17.08;100.00;96575.28;5104669;28;19961;-85
2023/09/09 04:02:59;;;;;;;;;;;;;;;17.06;100.00;96573.97;5086655;28;20238;-85
2023/09/09 04:05:25;;;;;;;;;;;;;;;17.07;100.00;96578.19;5104480;28;19992;-85
2023/09/09 04:07:51;;;;;;;;;;;;;;;17.05;100.00;96575.81;5104603;28;19954;-85
2023/09/09 04:10:17;;;;;;;;;;;;;;;17.03;100.00;96572.63;5104646;28;19961;-85
2023/09/09 04:12:43;;;;;;;;;;;;;;;17.02;100.00;96579.75;5104592;28;19962;-71
2023/09/09 04:15:10;;;;;;;;;;;;;;;17.02;100.00;96586.91;5089765;28;19982;-86
2023/09/09 04:17:37;;;;;;;;;;;;;;;17.01;100.00;96577.38;5090480;28;20273;-85
2023/09/09 04:20:03;;;;;;;;;;;;;;;16.99;100.00;96588.22;5108249;28;19953;-85
2023/09/09 04:22:29;;;;;;;;;;;;;;;16.99;100.00;96587.44;5107989;28;19963;-86
2023/09/09 04:24:55;;;;;;;;;;;;;;;16.99;100.00;96590.09;5107805;28;19955;-86
2023/09/09 04:27:21;;;;;;;;;;;;;;;16.98;100.00;96585.81;5108042;28;19964;-85
2023/09/09 04:29:47;;;;;;;;;;;;;;;16.96;100.00;96586.06;5108404;28;20140;-70
2023/09/09 04:32:13;;;;;;;;;;;;;;;16.95;100.00;96592.44;5089826;28;20005;-79
2023/09/09 04:34:39;;;;;;;;;;;;;;;16.95;100.00;96589.00;5089516;28;20023;-79
2023/09/09 04:37:04;;;;;;;;;;;;;;;16.93;100.00;96586.59;5089694;28;19959;-78
2023/09/09 04:39:30;;;;;;;;;;;;;;;16.90;100.00;96581.78;5108025;28;19951;-78
2023/09/09 04:41:56;;;;;;;;;;;;;;;16.89;100.00;96579.41;5108022;28;20006;-79
2023/09/09 04:44:22;;;;;;;;;;;;;;;16.90;100.00;96581.00;5107443;28;19946;-79
2023/09/09 04:46:48;;;;;;;;;;;;;;;16.88;100.00;96578.59;5107951;28;19963;-78
2023/09/09 04:49:17;;;;;;;;;;;;;;;16.87;100.00;96578.88;5107413;28;19968;-70
2023/09/09 04:51:43;;;;;;;;;;;;;;;16.85;100.00;96584.41;5089853;28;19970;-72
2023/09/09 04:54:09;;;;;;;;;;;;;;;16.85;100.00;96581.78;5107118;28;19972;-73
2023/09/09 04:56:35;;;;;;;;;;;;;;;16.85;100.00;96581.78;5107467;28;19971;-72
2023/09/09 04:59:01;;;;;;;;;;;;;;;16.84;100.00;96590.78;5107477;28;19961;-72
2023/09/09 05:01:27;;;;;;;;;;;;;;;16.84;100.00;96585.47;5107477;28;20007;-72
2023/09/09 05:03:52;;;;;;;;;;;;;;;16.83;100.00;96584.66;5108019;28;19964;-72
2023/09/09 05:06:18;;;;;;;;;;;;;;;16.83;100.00;96589.16;5107666;28;19956;-73
2023/09/09 05:08:45;;;;;;;;;;;;;;;16.83;100.00;96591.81;5107545;28;19962;-72
2023/09/09 05:11:11;;;;;;;;;;;;;;;16.82;100.00;96588.38;5107505;28;19949;-70
2023/09/09 05:13:37;;;;;;;;;;;;;;;16.81;100.00;96589.41;5106758;28;20026;-69
2023/09/09 05:16:03;;;;;;;;;;;;;;;16.82;100.00;96596.31;5107081;28;20287;-69
2023/09/09 05:18:28;;;;;;;;;;;;;;;16.81;100.00;96592.06;5107311;28;19991;-70
2023/09/09 05:20:54;;;;;;;;;;;;;;;16.82;100.00;96603.47;5107447;28;19965;-69
2023/09/09 05:23:20;;;;;;;;;;;;;;;16.81;100.00;96597.34;5106804;28;19999;-69
2023/09/09 05:25:47;;;;;;;;;;;;;;;16.83;100.00;96597.13;5106196;28;20246;-80
2023/09/09 05:28:13;;;;;;;;;;;;;;;16.99;100.00;96608.63;5089122;28;19962;-72
2023/09/09 05:30:42;;;;;;;;;;;;;;;17.24;100.00;96600.84;5106862;28;20016;-72
2023/09/09 05:33:08;;;;;;;;;;;;;;;17.54;100.00;96602.03;5106973;28;20123;-73
2023/09/09 05:35:34;;;;;;;;;;;;;;;17.89;100.00;96599.81;5106917;28;19970;-72
2023/09/09 05:38:00;;;;;;;;;;;;;;;18.20;100.00;96592.72;5106943;28;19990;-73
2023/09/09 05:40:26;;;;;;;;;;;;;;;18.49;100.00;96587.72;5106861;28;19956;-74
2023/09/09 05:42:51;;;;;;;;;;;;;;;18.78;100.00;96585.34;5106831;28;20251;-69
2023/09/09 05:45:17;;;;;;;;;;;;;;;19.05;100.00;96584.28;5106344;28;20252;-75
2023/09/09 05:47:44;;;;;;;;;;;;;;;19.32;100.00;96585.78;5106820;28;19957;-70
2023/09/09 05:50:11;;;;;;;;;;;;;;;19.54;100.00;96586.25;5106616;28;19970;-70
2023/09/09 05:52:37;;;;;;;;;;;;;;;19.77;100.00;96589.41;5106313;28;19953;-70
2023/09/09 05:55:04;;;;;;;;;;;;;;;19.96;100.00;96590.38;5106283;28;19970;-70
2023/09/09 05:57:32;;;;;;;;;;;;;;;20.15;100.00;96584.41;5088099;28;19955;-70
2023/09/09 05:59:58;;;;;;;;;;;;;;;20.36;100.00;96582.41;5106457;28;19964;-70
2023/09/09 06:02:24;;;;;;;;;;;;;;;20.55;100.00;96582.53;5105917;28;19970;-79
2023/09/09 06:04:50;;;;;;;;;;;;;;;20.74;100.00;96580.03;5106396;28;19954;-70
2023/09/09 06:07:16;;;;;;;;;;;;;;;20.86;100.00;96581.25;5106325;28;20025;-70
2023/09/09 06:09:42;;;;;;;;;;;;;;;20.97;100.00;96581.16;5088089;28;20009;-70
2023/09/09 06:12:08;;;;;;;;;;;;;;;21.09;100.00;96584.22;5105735;28;19942;-71
2023/09/09 06:14:34;;;;;;;;;;;;;;;21.18;100.00;96582.53;5105682;28;19972;-70
2023/09/09 06:16:59;;;;;;;;;;;;;;;21.24;100.00;96581.41;5105752;28;19952;-70
2023/09/09 06:19:25;;;;;;;;;;;;;;;21.32;100.00;96581.88;5106260;28;19963;-70
2023/09/09 06:21:51;;;;;;;;;;;;;;;21.33;100.00;96594.13;5105793;28;19959;-70
2023/09/09 06:24:17;;;;;;;;;;;;;;;21.36;100.00;96594.38;5087865;28;20148;-83
2023/09/09 06:26:43;;;;;;;;;;;;;;;21.34;100.00;96585.84;5105771;28;19959;-82
2023/09/09 06:29:09;;;;;;;;;;;;;;;21.35;100.00;96592.75;5106012;28;19970;-83
2023/09/09 06:31:35;;;;;;;;;;;;;;;21.39;100.00;96588.44;5087579;28;19958;-82
2023/09/09 06:34:01;;;;;;;;;;;;;;;21.40;100.00;96586.59;5105641;28;19962;-83
2023/09/09 06:36:27;;;;;;;;;;;;;;;21.35;100.00;96594.63;5105483;28;19966;-83
2023/09/09 06:38:52;;;;;;;;;;;;;;;21.34;100.00;96595.72;5105827;28;19960;-82
2023/09/09 06:41:18;;;;;;;;;;;;;;;21.41;100.00;96599.63;5105665;28;19960;-79
2023/09/09 06:43:44;;;;;;;;;;;;;;;21.40;100.00;96595.38;5087862;28;20146;-78
2023/09/09 06:46:10;;;;;;;;;;;;;;;21.43;100.00;96610.06;5087399;28;19956;-79
2023/09/09 06:48:36;;;;;;;;;;;;;;;21.51;100.00;96606.78;5087650;28;19959;-79
2023/09/09 06:51:02;;;;;;;;;;;;;;;21.58;100.00;96601.88;5104937;28;19966;-79
2023/09/09 06:53:28;;;;;;;;;;;;;;;21.65;100.00;96599.66;5105094;28;19956;-79
2023/09/09 06:55:54;;;;;;;;;;;;;;;21.71;100.00;96604.94;5105247;28;19972;-79
2023/09/09 06:58:20;;;;;;;;;;;;;;;21.80;100.00;96600.56;5087230;28;19960;-70
2023/09/09 07:00:50;;;;;;;;;;;;;;;21.85;100.00;96606.63;5087137;28;19961;-72
2023/09/09 07:03:16;;;;;;;;;;;;;;;21.89;100.00;96604.19;5105193;28;19964;-72
2023/09/09 07:05:42;;;;;;;;;;;;;;;21.88;100.00;96610.59;5105217;28;19952;-72
2023/09/09 07:08:08;;;;;;;;;;;;;;;21.94;100.00;96614.00;5105531;28;19961;-73
2023/09/09 07:10:34;;;;;;;;;;;;;;;22.04;100.00;96608.53;5105241;28;19963;-73
2023/09/09 07:13:00;;;;;;;;;;;;;;;22.06;100.00;96609.03;5104756;28;19945;-72
2023/09/09 07:15:26;;;;;;;;;;;;;;;22.18;100.00;96611.28;5104723;28;19965;-73
2023/09/09 07:17:52;;;;;;;;;;;;;;;22.23;100.00;96614.69;5105166;28;20174;-70
2023/09/09 07:20:17;;;;;;;;;;;;;;;22.20;100.00;96615.25;5104913;28;19965;-70
2023/09/09 07:22:43;;;;;;;;;;;;;;;22.18;100.00;96625.44;5105235;28;20132;-70
2023/09/09 07:25:09;;;;;;;;;;;;;;;22.27;100.00;96622.94;5104731;28;19959;-71
2023/09/09 07:27:35;;;;;;;;;;;;;;;22.38;100.00;96619.03;5104995;28;19952;-70
2023/09/09 07:30:01;;;;;;;;;;;;;;;22.36;100.00;96617.72;5104995;28;20177;-70
2023/09/09 07:32:27;;;;;;;;;;;;;;;22.42;100.00;96625.38;5105063;28;20220;-70
2023/09/09 07:34:52;;;;;;;;;;;;;;;22.47;100.00;96637.91;5104761;28;19964;-69
2023/09/09 07:37:19;;;;;;;;;;;;;;;22.58;100.00;96623.28;5104837;28;19958;-69
2023/09/09 07:39:45;;;;;;;;;;;;;;;22.50;100.00;96624.72;5086597;28;19968;-70
2023/09/09 07:42:14;;;;;;;;;;;;;;;22.58;100.00;96609.13;5104330;28;20132;-70
2023/09/09 07:44:40;;;;;;;;;;;;;;;22.71;100.00;96605.72;5104850;28;19957;-69
2023/09/09 07:47:07;;;;;;;;;;;;;;;22.79;100.00;96610.41;5105052;28;20139;-69
2023/09/09 07:49:33;;;;;;;;;;;;;;;22.85;100.00;96611.13;5107266;28;19963;-69
2023/09/09 07:51:59;;;;;;;;;;;;;;;22.96;100.00;96614.41;5109239;28;19962;-72
2023/09/09 07:54:27;;;;;;;;;;;;;;;23.04;100.00;96600.41;5107969;28;20222;-72
2023/09/09 07:56:53;;;;;;;;;;;;;;;23.13;100.00;96605.84;5108719;28;19994;-79
2023/09/09 07:59:19;;;;;;;;;;;;;;;23.21;100.00;96611.31;5108924;28;20137;-80
2023/09/09 08:01:45;;;;;;;;;;;;;;;23.28;99.35;96605.56;5108720;28;19955;-79
2023/09/09 08:04:11;;;;;;;;;;;;;;;23.36;100.00;96607.56;5109248;28;19970;-80
2023/09/09 08:06:36;;;;;;;;;;;;;;;23.49;99.72;96611.34;5108729;28;19959;-78
2023/09/09 08:09:02;;;;;;;;;;;;;;;23.58;96.91;96596.19;5108625;28;19958;-79
2023/09/09 08:11:28;;;;;;;;;;;;;;;23.62;99.14;96620.47;5108162;28;19946;-73
2023/09/09 08:13:54;;;;;;;;;;;;;;;23.68;99.27;96617.38;5090038;28;19977;-79
2023/09/09 08:16:20;;;;;;;;;;;;;;;23.77;99.11;96611.34;5108042;28;20025;-78
2023/09/09 08:18:46;;;;;;;;;;;;;;;23.82;97.40;96598.66;5090029;28;20253;-79
2023/09/09 08:21:13;;;;;;;;;;;;;;;23.79;96.69;96599.28;5108091;28;19957;-80
2023/09/09 08:23:39;;;;;;;;;;;;;;;23.79;97.96;96607.31;5108095;28;19958;-78
2023/09/09 08:26:05;;;;;;;;;;;;;;;23.83;98.81;96612.84;5108234;28;19960;-79
2023/09/09 08:28:30;;;;;;;;;;;;;;;23.85;96.94;96616.03;5108369;28;19957;-72
2023/09/09 08:30:58;;;;;;;;;;;;;;;23.94;100.00;96627.63;5107726;28;19988;-75
2023/09/09 08:33:24;;;;;;;;;;;;;;;23.99;96.77;96607.97;5108126;28;20237;-76
2023/09/09 08:35:49;;;;;;;;;;;;;;;24.01;93.02;96589.72;5107992;28;20002;-77
2023/09/09 08:38:15;;;;;;;;;;;;;;;24.10;97.68;96612.00;5108051;28;19970;-76
2023/09/09 08:41:00;;;;;;;;;;;;;;;24.17;97.14;96604.38;5107566;28;20197;-77
2023/09/09 08:43:35;;;;;;;;;;;;;;;24.27;95.08;96601.47;5107790;28;19964;-76
2023/09/09 08:46:22;;;;;;;;;;;;;;;24.29;94.10;96590.44;5107682;28;19956;-73
2023/09/09 08:48:51;;;;;;;;;;;;;;;24.39;95.28;96608.19;5107630;28;19968;-79
2023/09/09 08:51:17;;;;;;;;;;;;;;;24.46;94.51;96598.63;5089335;28;19956;-73
2023/09/09 08:53:44;;;;;;;;;;;;;;;24.52;92.27;96602.00;5107721;28;20243;-73
2023/09/09 08:56:12;;;;;;;;;;;;;;;24.62;94.90;96609.00;5107740;28;19954;-73
2023/09/09 08:58:38;;;;;;;;;;;;;;;24.68;94.04;96602.44;5107701;28;19956;-73
2023/09/09 09:01:04;;;;;;;;;;;;;;;24.71;93.25;96594.59;5107814;28;19967;-73
2023/09/09 09:03:31;;;;;;;;;;;;;;;24.78;95.96;96609.44;5107200;28;19959;-74
2023/09/09 09:05:58;;;;;;;;;;;;;;;24.86;92.42;96592.59;5107429;28;19952;-71
2023/09/09 09:08:23;;;;;;;;;;;;;;;24.93;92.65;96598.34;5107270;28;19956;-79
2023/09/09 09:10:49;;;;;;;;;;;;;;;24.93;93.33;96598.34;5088973;28;19954;-80
2023/09/09 09:13:15;;;;;;;;;;;;;;;24.92;95.27;96610.16;5107180;28;19961;-79
2023/09/09 09:15:41;;;;;;;;;;;;;;;24.97;94.45;96602.00;5107320;28;19968;-80
2023/09/09 09:18:08;;;;;;;;;;;;;;;25.03;95.95;96613.38;5107246;28;19964;-79
2023/09/09 09:20:34;;;;;;;;;;;;;;;25.07;93.59;96599.06;5107350;28;19953;-80
2023/09/09 09:23:02;;;;;;;;;;;;;;;25.06;94.50;96602.81;5107232;28;19969;-81
2023/09/09 09:25:28;;;;;;;;;;;;;;;25.06;93.00;96604.72;5107231;28;20151;-69
2023/09/09 09:27:57;;;;;;;;;;;;;;;25.10;94.49;96603.00;5088818;28;19958;-80
2023/09/09 09:30:24;;;;;;;;;;;;;;;25.06;93.21;96594.00;5106676;28;19962;-80
2023/09/09 09:32:53;;;;;;;;;;;;;;;25.09;93.12;96596.03;5106634;28;19952;-81
2023/09/09 09:35:25;;;;;;;;;;;;;;;25.14;92.44;96584.41;5106655;28;19971;-80
2023/09/09 09:38:13;;;;;;;;;;;;;;;25.17;93.64;96589.94;5106709;28;19956;-82
2023/09/09 09:40:40;;;;;;;;;;;;;;;25.22;90.78;96579.09;5105656;28;20159;-80
2023/09/09 09:43:18;;;;;;;;;;;;;;;25.26;92.12;96588.13;5106949;28;19958;-76
2023/09/09 09:45:44;;;;;;;;;;;;;;;25.30;95.27;96589.09;5106887;28;19957;-80
2023/09/09 09:48:10;;;;;;;;;;;;;;;25.34;89.91;96567.78;5106812;28;19965;-79
2023/09/09 09:50:37;;;;;;;;;;;;;;;25.35;91.58;96568.59;5106758;28;19944;-80
2023/09/09 09:53:05;;;;;;;;;;;;;;;25.40;94.25;96587.22;5106619;28;20242;-80
2023/09/09 09:55:32;;;;;;;;;;;;;;;25.48;91.58;96576.50;5106717;28;19965;-81
2023/09/09 09:58:02;;;;;;;;;;;;;;;25.57;88.09;96559.63;5106284;28;19955;-80
2023/09/09 10:00:28;;;;;;;;;;;;;;;25.63;91.24;96579.88;5087967;28;20272;-73
2023/09/09 10:02:55;;;;;;;;;;;;;;;25.67;88.54;96553.97;5106322;28;20278;-79
2023/09/09 10:05:22;;;;;;;;;;;;;;;25.72;87.30;96546.56;5087998;28;19953;-76
2023/09/09 10:08:08;;;;;;;;;;;;;;;25.79;85.77;96540.72;5106355;28;19961;-76
2023/09/09 10:10:35;;;;;;;;;;;;;;;25.85;81.83;96531.41;5047332;28;19964;-76
2023/09/09 10:13:09;;;;;;;;;;;;;;;25.94;85.79;96538.72;5105427;28;19946;-76
2023/09/09 10:15:35;;;;;;;;;;;;;;;26.02;86.38;96537.94;5105765;28;19976;-76
2023/09/09 10:18:02;;;;;;;;;;;;;;;26.14;86.73;96548.84;5106211;28;19954;-76
2023/09/09 10:20:29;;;;;;;;;;;;;;;26.26;84.96;96529.41;5105529;28;19963;-79
2023/09/09 10:22:59;;;;;;;;;;;;;;;26.38;84.14;96526.06;5105710;28;19958;-70
2023/09/09 10:25:26;;;;;;;;;;;;;;;26.48;84.20;96525.72;5087455;28;19965;-70
2023/09/09 10:27:52;;;;;;;;;;;;;;;26.62;85.85;96534.44;5105636;28;19951;-70
2023/09/09 10:30:19;;;;;;;;;;;;;;;26.73;81.58;96514.19;5087639;28;19995;-70
2023/09/09 10:32:46;;;;;;;;;;;;;;;26.85;71.22;96472.34;5105959;28;19953;-70
2023/09/09 10:35:14;;;;;;;;;;;;;;;26.98;78.16;96556.69;5105764;28;19977;-70
2023/09/09 10:37:40;;;;;;;;;;;;;;;27.09;78.62;96561.41;5105833;28;20142;-70
2023/09/09 10:40:08;;;;;;;;;;;;;;;27.20;76.92;96555.66;5105512;28;19945;-78
2023/09/09 10:42:36;;;;;;;;;;;;;;;27.30;76.60;96555.34;5087849;28;19969;-79
2023/09/09 10:45:21;;;;;;;;;;;;;;;27.43;75.34;96556.22;5105587;28;19956;-80
2023/09/09 10:48:03;;;;;;;;;;;;;;;27.60;76.82;96564.22;5105375;28;19984;-80
2023/09/09 10:50:40;;;;;;;;;;;;;;;27.76;72.11;96552.88;5087349;28;19957;-80
2023/09/09 10:53:12;;;;;;;;;;;;;;;27.90;66.56;96542.66;5105695;28;19973;-79
2023/09/09 10:55:38;;;;;;;;;;;;;;;28.03;70.83;96560.47;5105398;28;19962;-71
2023/09/09 10:58:08;;;;;;;;;;;;;;;28.19;72.49;96562.59;5105065;28;19986;-71
2023/09/09 11:00:38;;;;;;;;;;;;;;;28.30;72.84;96569.94;5104888;28;19963;-78
2023/09/09 11:03:15;;;;;;;;;;;;;;;28.43;67.71;96565.41;5105141;28;19957;-78
2023/09/09 11:05:56;;;;;;;;;;;;;;;28.58;69.07;96568.63;5105056;28;19957;-78
2023/09/09 11:08:33;;;;;;;;;;;;;;;28.74;67.84;96567.66;5087086;28;19960;-78
2023/09/09 11:11:12;;;;;;;;;;;;;;;28.90;67.57;96562.44;5105197;28;20166;-77
2023/09/09 11:13:38;;;;;;;;;;;;;;;29.00;63.99;96553.13;5105189;28;19954;-77
2023/09/09 11:16:06;;;;;;;;;;;;;;;29.06;62.47;96565.31;5104637;28;19958;-73
2023/09/09 11:18:33;;;;;;;;;;;;;;;29.10;63.26;96571.59;5105014;28;19984;-81
2023/09/09 11:21:00;;;;;;;;;;;;;;;29.17;66.45;96568.38;5104931;28;19953;-80
2023/09/09 11:23:26;;;;;;;;;;;;;;;29.34;68.43;96580.88;5104062;28;19959;-81
2023/09/09 11:25:53;;;;;;;;;;;;;;;29.50;61.90;96557.47;5104900;28;19951;-81
2023/09/09 11:28:19;;;;;;;;;;;;;;;29.63;66.48;96574.47;5105523;28;19963;-80
2023/09/09 11:30:45;;;;;;;;;;;;;;;29.81;63.73;96566.16;5104801;28;19956;-81
2023/09/09 11:33:19;;;;;;;;;;;;;;;29.91;67.18;96574.59;5104859;28;19959;-79
2023/09/09 11:35:45;;;;;;;;;;;;;;;30.03;68.64;96583.78;5104813;28;19965;-69
2023/09/09 11:38:13;;;;;;;;;;;;;;;30.21;65.34;96571.59;5070028;28;19963;-69
2023/09/09 11:40:39;;;;;;;;;;;;;;;30.18;59.69;96571.50;5104870;28;19960;-69
2023/09/09 11:43:06;;;;;;;;;;;;;;;30.17;59.78;96565.28;5105105;28;19945;-69
2023/09/09 11:45:32;;;;;;;;;;;;;;;30.23;63.42;96573.94;5104420;28;19955;-71
2023/09/09 11:47:58;;;;;;;;;;;;;;;30.34;66.87;96575.88;5104834;28;20235;-70
2023/09/09 11:50:37;;;;;;;;;;;;;;;30.51;63.43;96563.16;5104417;28;20000;-69
2023/09/09 11:53:03;;;;;;;;;;;;;;;30.63;58.22;96549.56;5104963;28;19960;-81
2023/09/09 11:55:29;;;;;;;;;;;;;;;30.52;58.91;96551.22;5104537;28;19969;-81
2023/09/09 11:57:55;;;;;;;;;;;;;;;30.30;61.58;96555.22;5104575;28;19959;-80
2023/09/09 12:00:22;;;;;;;;;;;;;;;30.19;64.31;96567.66;5104826;28;19967;-81
2023/09/09 12:02:48;;;;;;;;;;;;;;;30.23;61.00;96550.38;5104630;28;19957;-80
2023/09/09 12:05:15;;;;;;;;;;;;;;;30.42;63.09;96563.31;5069867;28;19962;-81
2023/09/09 12:07:41;;;;;;;;;;;;;;;30.58;60.67;96549.06;5104632;28;20225;-80
2023/09/09 12:10:12;;;;;;;;;;;;;;;30.70;61.72;96560.63;5104662;28;20135;-70
2023/09/09 12:12:40;;;;;;;;;;;;;;;30.62;59.33;96555.34;5104258;28;19956;-70
2023/09/09 12:15:07;;;;;;;;;;;;;;;30.55;58.47;96555.94;5104157;28;19967;-70
2023/09/09 12:17:33;;;;;;;;;;;;;;;30.52;61.89;96557.41;5104576;28;20153;-71
2023/09/09 12:20:01;;;;;;;;;;;;;;;30.54;61.22;96555.16;5104221;28;19952;-70
2023/09/09 12:22:41;;;;;;;;;;;;;;;30.56;59.34;96557.53;5104241;28;19959;-70
2023/09/09 12:25:27;;;;;;;;;;;;;;;30.63;60.38;96549.56;5104539;28;19960;-70
2023/09/09 12:27:52;;;;;;;;;;;;;;;30.77;59.55;96549.19;5104507;28;19959;-78
2023/09/09 12:30:39;;;;;;;;;;;;;;;30.93;60.97;96550.03;5103924;28;19985;-70
2023/09/09 12:33:05;;;;;;;;;;;;;;;31.09;57.67;96533.78;5104037;28;19963;-70
2023/09/09 12:35:34;;;;;;;;;;;;;;;31.16;59.39;96552.13;5106397;28;19963;-70
2023/09/09 12:38:01;;;;;;;;;;;;;;;30.98;53.77;96531.94;5107891;28;19959;-70
2023/09/09 12:40:26;;;;;;;;;;;;;;;30.87;59.86;96556.81;5108129;28;20142;-70